createdAt,value
2023-08-07T00:02:16.540Z,100.00
2023-08-07T00:04:50.353Z,100.00
2023-08-07T00:07:25.647Z,100.00
2023-08-07T00:09:58.832Z,100.00
2023-08-07T00:12:31.820Z,100.00
2023-08-07T00:15:05.315Z,100.00
2023-08-07T00:17:38.616Z,100.00
2023-08-07T00:20:14.059Z,100.00
2023-08-07T00:22:47.402Z,100.00
2023-08-07T00:25:21.007Z,100.00
2023-08-07T00:27:54.837Z,100.00
2023-08-07T00:30:27.599Z,100.00
2023-08-07T00:33:00.875Z,100.00
2023-08-07T00:35:34.258Z,100.00
2023-08-07T00:38:07.342Z,100.00
2023-08-07T00:40:44.710Z,100.00
2023-08-07T00:43:17.734Z,100.00
2023-08-07T00:45:52.993Z,100.00
2023-08-07T00:48:26.997Z,100.00
2023-08-07T00:51:00.416Z,100.00
2023-08-07T00:53:34.968Z,100.00
2023-08-07T00:56:08.788Z,100.00
2023-08-07T00:58:42.565Z,100.00
2023-08-07T01:01:17.066Z,100.00
2023-08-07T01:03:50.217Z,100.00
2023-08-07T01:06:23.617Z,100.00
2023-08-07T01:08:56.887Z,100.00
2023-08-07T01:11:37.185Z,100.00
2023-08-07T01:14:20.302Z,100.00
2023-08-07T01:16:55.013Z,100.00
2023-08-07T01:19:31.910Z,100.00
2023-08-07T01:22:12.313Z,100.00
2023-08-07T01:24:48.156Z,100.00
2023-08-07T01:27:39.218Z,100.00
2023-08-07T01:30:20.561Z,100.00
2023-08-07T01:32:57.882Z,100.00
2023-08-07T01:35:32.640Z,100.00
2023-08-07T01:38:06.381Z,100.00
2023-08-07T01:40:41.910Z,100.00
2023-08-07T01:43:15.019Z,100.00
2023-08-07T01:45:48.196Z,100.00
2023-08-07T01:48:22.397Z,100.00
2023-08-07T01:50:57.308Z,100.00
2023-08-07T01:53:30.810Z,100.00
2023-08-07T01:56:04.315Z,100.00
2023-08-07T01:58:37.578Z,100.00
2023-08-07T02:01:11.258Z,100.00
2023-08-07T02:03:44.489Z,100.00
2023-08-07T02:06:17.965Z,100.00
2023-08-07T02:08:52.171Z,100.00
2023-08-07T02:11:26.182Z,100.00
2023-08-07T02:14:00.802Z,100.00
2023-08-07T02:16:34.389Z,100.00
2023-08-07T02:19:07.818Z,100.00
2023-08-07T02:21:42.076Z,100.00
2023-08-07T02:24:15.960Z,100.00
2023-08-07T02:26:49.842Z,100.00
2023-08-07T02:29:23.227Z,100.00
2023-08-07T02:31:57.265Z,100.00
2023-08-07T02:34:30.431Z,100.00
2023-08-07T02:37:05.338Z,100.00
2023-08-07T02:39:39.896Z,100.00
2023-08-07T02:42:13.026Z,100.00
2023-08-07T02:44:46.669Z,100.00
2023-08-07T02:47:20.712Z,100.00
2023-08-07T02:49:54.119Z,100.00
2023-08-07T02:52:27.204Z,100.00
2023-08-07T02:55:00.864Z,100.00
2023-08-07T02:57:34.124Z,100.00
2023-08-07T03:00:11.230Z,100.00
2023-08-07T03:02:44.616Z,100.00
2023-08-07T03:05:18.692Z,100.00
2023-08-07T03:07:51.783Z,100.00
2023-08-07T03:10:26.745Z,100.00
2023-08-07T03:13:00.585Z,100.00
2023-08-07T03:15:33.220Z,100.00
2023-08-07T03:18:07.352Z,100.00
2023-08-07T03:20:42.134Z,100.00
2023-08-07T03:23:15.992Z,100.00
2023-08-07T03:25:49.306Z,100.00
2023-08-07T03:28:23.071Z,100.00
2023-08-07T03:30:56.315Z,100.00
2023-08-07T03:33:30.392Z,100.00
2023-08-07T03:36:04.007Z,100.00
2023-08-07T03:38:37.807Z,100.00
2023-08-07T03:41:11.816Z,100.00
2023-08-07T03:43:46.536Z,100.00
2023-08-07T03:46:19.629Z,100.00
2023-08-07T03:48:53.012Z,100.00
2023-08-07T03:51:26.458Z,100.00
2023-08-07T03:54:00.838Z,100.00
2023-08-07T03:56:37.865Z,100.00
2023-08-07T03:59:11.719Z,100.00
2023-08-07T04:01:44.972Z,100.00
2023-08-07T04:04:18.162Z,100.00
2023-08-07T04:06:51.502Z,100.00
2023-08-07T04:09:25.501Z,100.00
2023-08-07T04:11:59.567Z,100.00
2023-08-07T04:14:32.757Z,100.00
2023-08-07T04:17:06.793Z,100.00
2023-08-07T04:19:40.013Z,100.00
2023-08-07T04:22:14.317Z,100.00
2023-08-07T04:24:47.655Z,100.00
2023-08-07T04:27:21.450Z,100.00
2023-08-07T04:29:54.547Z,100.00
2023-08-07T04:32:28.120Z,100.00
2023-08-07T04:35:02.409Z,100.00
2023-08-07T04:37:35.592Z,100.00
2023-08-07T04:40:12.756Z,100.00
2023-08-07T04:42:46.015Z,100.00
2023-08-07T04:45:20.098Z,100.00
2023-08-07T04:47:53.672Z,100.00
2023-08-07T04:50:27.201Z,100.00
2023-08-07T04:53:01.055Z,100.00
2023-08-07T04:55:34.742Z,100.00
2023-08-07T04:58:07.906Z,100.00
2023-08-07T05:00:40.809Z,100.00
2023-08-07T05:03:14.275Z,100.00
2023-08-07T05:05:48.072Z,100.00
2023-08-07T05:08:21.588Z,100.00
2023-08-07T05:10:55.384Z,100.00
2023-08-07T05:13:29.316Z,100.00
2023-08-07T05:16:02.506Z,100.00
2023-08-07T05:18:35.779Z,100.00
2023-08-07T05:21:10.325Z,100.00
2023-08-07T05:23:43.809Z,100.00
2023-08-07T05:26:19.233Z,100.00
2023-08-07T05:28:52.041Z,100.00
2023-08-07T05:31:26.683Z,100.00
2023-08-07T05:34:02.083Z,100.00
2023-08-07T05:36:36.194Z,100.00
2023-08-07T05:39:10.156Z,100.00
2023-08-07T05:41:43.627Z,100.00
2023-08-07T05:44:17.094Z,100.00
2023-08-07T05:46:49.798Z,100.00
2023-08-07T05:49:25.915Z,100.00
2023-08-07T05:51:59.944Z,100.00
2023-08-07T05:54:33.542Z,100.00
2023-08-07T05:57:08.495Z,100.00
2023-08-07T05:59:42.751Z,100.00
2023-08-07T06:02:16.368Z,100.00
2023-08-07T06:04:50.031Z,100.00
2023-08-07T06:07:23.595Z,100.00
2023-08-07T06:09:57.398Z,100.00
2023-08-07T06:12:31.105Z,100.00
2023-08-07T06:15:04.410Z,100.00
2023-08-07T06:17:37.967Z,100.00
2023-08-07T06:20:15.732Z,100.00
2023-08-07T06:22:49.084Z,100.00
2023-08-07T06:25:22.314Z,100.00
2023-08-07T06:27:56.317Z,100.00
2023-08-07T06:30:29.412Z,100.00
2023-08-07T06:33:02.701Z,100.00
2023-08-07T06:35:43.875Z,100.00
2023-08-07T06:38:17.445Z,100.00
2023-08-07T06:40:51.496Z,100.00
2023-08-07T06:43:24.863Z,100.00
2023-08-07T06:45:59.502Z,100.00
2023-08-07T06:48:32.969Z,100.00
2023-08-07T06:51:06.713Z,100.00
2023-08-07T06:53:39.718Z,100.00
2023-08-07T06:56:14.092Z,100.00
2023-08-07T06:58:47.603Z,100.00
2023-08-07T07:01:21.009Z,100.00
2023-08-07T07:03:54.898Z,100.00
2023-08-07T07:06:28.490Z,100.00
2023-08-07T07:09:01.779Z,100.00
2023-08-07T07:11:36.102Z,100.00
2023-08-07T07:14:09.479Z,100.00
2023-08-07T07:16:43.476Z,100.00
2023-08-07T07:19:17.719Z,100.00
2023-08-07T07:21:51.311Z,100.00
2023-08-07T07:24:24.288Z,100.00
2023-08-07T07:26:57.307Z,100.00
2023-08-07T07:29:30.987Z,100.00
2023-08-07T07:32:04.200Z,100.00
2023-08-07T07:34:38.432Z,100.00
2023-08-07T07:37:12.154Z,100.00
2023-08-07T07:39:45.490Z,100.00
2023-08-07T07:42:18.679Z,100.00
2023-08-07T07:44:52.309Z,100.00
2023-08-07T07:47:25.574Z,100.00
2023-08-07T07:50:10.207Z,100.00
2023-08-07T07:52:44.348Z,100.00
2023-08-07T07:55:17.940Z,100.00
2023-08-07T07:57:51.929Z,100.00
2023-08-07T08:00:28.309Z,100.00
2023-08-07T08:03:02.276Z,100.00
2023-08-07T08:05:36.851Z,100.00
2023-08-07T08:08:10.318Z,100.00
2023-08-07T08:10:43.442Z,100.00
2023-08-07T08:13:16.924Z,100.00
2023-08-07T08:15:50.290Z,100.00
2023-08-07T08:18:23.899Z,100.00
2023-08-07T08:20:58.428Z,100.00
2023-08-07T08:23:31.642Z,100.00
2023-08-07T08:26:06.480Z,100.00
2023-08-07T08:28:40.341Z,100.00
2023-08-07T08:31:13.413Z,99.38
2023-08-07T08:33:46.866Z,99.11
2023-08-07T08:36:20.285Z,97.75
2023-08-07T08:38:54.200Z,96.47
2023-08-07T08:41:28.644Z,95.14
2023-08-07T08:44:02.256Z,93.36
2023-08-07T08:46:37.277Z,92.00
2023-08-07T08:49:12.286Z,91.32
2023-08-07T08:51:46.169Z,89.68
2023-08-07T08:54:19.554Z,89.17
2023-08-07T08:56:53.340Z,86.45
2023-08-07T08:59:27.161Z,85.03
2023-08-07T09:02:00.764Z,83.10
2023-08-07T09:04:35.048Z,81.93
2023-08-07T09:07:08.740Z,78.89
2023-08-07T09:09:43.223Z,76.50
2023-08-07T09:12:23.067Z,74.34
2023-08-07T09:14:59.901Z,73.98
2023-08-07T09:17:34.230Z,72.40
2023-08-07T09:20:12.446Z,72.76
2023-08-07T09:22:46.361Z,71.75
2023-08-07T09:25:32.324Z,69.51
2023-08-07T09:28:08.641Z,67.66
2023-08-07T09:30:45.542Z,68.37
2023-08-07T09:33:26.552Z,68.32
2023-08-07T09:36:04.172Z,66.86
2023-08-07T09:38:37.496Z,64.46
2023-08-07T09:41:10.846Z,63.37
2023-08-07T09:43:44.249Z,62.65
2023-08-07T09:46:20.134Z,62.12
2023-08-07T09:48:53.485Z,61.83
2023-08-07T09:51:27.056Z,60.35
2023-08-07T09:54:02.329Z,58.98
2023-08-07T09:56:37.308Z,58.79
2023-08-07T09:59:11.452Z,59.54
2023-08-07T10:01:45.756Z,58.40
2023-08-07T10:04:19.703Z,56.46
2023-08-07T10:06:53.900Z,55.84
2023-08-07T10:09:29.196Z,55.96
2023-08-07T10:12:04.439Z,55.51
2023-08-07T10:14:37.683Z,54.71
2023-08-07T10:17:12.233Z,55.72
2023-08-07T10:19:46.125Z,55.25
2023-08-07T10:22:21.030Z,54.21
2023-08-07T10:24:55.870Z,54.44
2023-08-07T10:27:31.755Z,54.08
2023-08-07T10:30:09.334Z,53.92
2023-08-07T10:32:43.979Z,54.70
2023-08-07T10:35:27.551Z,54.91
2023-08-07T10:38:10.570Z,54.20
2023-08-07T10:41:04.108Z,53.92
2023-08-07T10:43:41.021Z,53.09
2023-08-07T10:46:15.747Z,52.78
2023-08-07T10:48:58.386Z,53.17
2023-08-07T10:51:34.884Z,51.62
2023-08-07T10:54:08.385Z,50.97
2023-08-07T10:56:42.665Z,50.91
2023-08-07T10:59:16.478Z,50.12
2023-08-07T11:01:56.855Z,49.30
2023-08-07T11:04:31.115Z,49.26
2023-08-07T11:07:05.798Z,49.19
2023-08-07T11:09:39.439Z,49.25
2023-08-07T11:12:13.820Z,48.57
2023-08-07T11:14:47.141Z,48.41
2023-08-07T11:17:21.372Z,48.50
2023-08-07T11:19:55.735Z,47.90
2023-08-07T11:22:29.331Z,47.67
2023-08-07T11:25:03.058Z,47.49
2023-08-07T11:27:36.235Z,46.88
2023-08-07T11:30:15.413Z,46.97
2023-08-07T11:32:49.221Z,46.64
2023-08-07T11:35:22.886Z,47.00
2023-08-07T11:37:56.573Z,46.78
2023-08-07T11:40:30.161Z,46.48
2023-08-07T11:43:04.127Z,46.08
2023-08-07T11:45:37.507Z,45.73
2023-08-07T11:48:12.665Z,45.89
2023-08-07T11:50:47.603Z,45.20
2023-08-07T11:53:20.860Z,44.48
2023-08-07T11:55:58.350Z,44.43
2023-08-07T11:58:36.057Z,44.23
2023-08-07T12:01:12.396Z,43.88
2023-08-07T12:03:53.416Z,43.33
2023-08-07T12:06:27.967Z,43.76
2023-08-07T12:09:02.036Z,43.45
2023-08-07T12:11:35.441Z,42.97
2023-08-07T12:14:08.557Z,43.15
2023-08-07T12:16:41.750Z,42.78
2023-08-07T12:19:16.008Z,42.30
2023-08-07T12:21:49.562Z,41.97
2023-08-07T12:24:24.049Z,42.15
2023-08-07T12:26:57.543Z,41.70
2023-08-07T12:29:31.337Z,41.96
2023-08-07T12:32:04.802Z,41.81
2023-08-07T12:35:15.163Z,40.93
2023-08-07T12:37:32.455Z,40.85
2023-08-07T12:42:43.688Z,41.11
2023-08-07T12:45:17.622Z,40.51
2023-08-07T12:47:51.382Z,41.00
2023-08-07T12:50:24.566Z,40.75
2023-08-07T12:52:58.286Z,40.45
2023-08-07T12:55:32.007Z,40.34
2023-08-07T12:58:05.921Z,40.11
2023-08-07T13:00:39.467Z,39.94
2023-08-07T13:03:13.022Z,39.92
2023-08-07T13:05:46.453Z,39.92
2023-08-07T13:08:19.563Z,40.45
2023-08-07T13:10:55.106Z,40.30
2023-08-07T13:13:29.254Z,40.48
2023-08-07T13:16:02.493Z,39.76
2023-08-07T13:18:35.836Z,39.20
2023-08-07T13:21:10.026Z,39.29
2023-08-07T13:23:43.140Z,39.14
2023-08-07T13:26:17.206Z,38.85
2023-08-07T13:28:50.150Z,38.71
2023-08-07T13:31:23.577Z,38.85
2023-08-07T13:33:56.796Z,38.96
2023-08-07T13:36:30.291Z,38.22
2023-08-07T13:39:03.590Z,37.94
2023-08-07T13:41:37.673Z,38.04
2023-08-07T13:44:14.324Z,37.95
2023-08-07T13:46:49.196Z,38.13
2023-08-07T13:49:23.309Z,38.20
2023-08-07T13:51:57.588Z,38.69
2023-08-07T13:54:30.844Z,38.20
2023-08-07T13:57:04.219Z,38.49
2023-08-07T13:59:37.716Z,38.23
2023-08-07T14:02:11.933Z,38.30
2023-08-07T14:04:46.843Z,37.96
2023-08-07T14:07:20.239Z,37.88
2023-08-07T14:09:54.734Z,37.83
2023-08-07T14:12:28.392Z,37.66
2023-08-07T14:15:01.979Z,37.37
2023-08-07T14:17:35.187Z,37.50
2023-08-07T14:20:12.869Z,37.55
2023-08-07T14:22:46.195Z,37.40
2023-08-07T14:25:22.726Z,37.89
2023-08-07T14:27:56.252Z,37.66
2023-08-07T14:30:30.387Z,36.94
2023-08-07T14:33:03.920Z,37.19
2023-08-07T14:35:37.183Z,36.91
2023-08-07T14:38:10.541Z,36.72
2023-08-07T14:40:44.954Z,36.81
2023-08-07T14:43:18.337Z,37.01
2023-08-07T14:45:51.765Z,36.97
2023-08-07T14:48:25.329Z,37.38
2023-08-07T14:50:59.096Z,37.23
2023-08-07T14:53:32.536Z,36.85
2023-08-07T14:56:06.663Z,36.80
2023-08-07T14:58:40.053Z,37.11
2023-08-07T15:01:13.093Z,37.08
2023-08-07T15:03:47.285Z,37.40
2023-08-07T15:06:20.598Z,37.10
2023-08-07T15:08:54.955Z,37.01
2023-08-07T15:11:28.831Z,37.48
2023-08-07T15:14:05.878Z,37.22
2023-08-07T15:16:40.214Z,37.58
2023-08-07T15:19:14.395Z,37.23
2023-08-07T15:21:47.418Z,37.46
2023-08-07T15:24:21.396Z,37.30
2023-08-07T15:26:54.706Z,37.21
2023-08-07T15:29:27.879Z,37.25
2023-08-07T15:32:01.599Z,37.15
2023-08-07T15:34:35.550Z,37.32
2023-08-07T15:37:09.640Z,37.64
2023-08-07T15:39:44.515Z,37.76
2023-08-07T15:42:17.705Z,37.86
2023-08-07T15:44:51.520Z,38.21
2023-08-07T15:47:24.720Z,38.04
2023-08-07T15:49:58.272Z,38.11
2023-08-07T15:52:31.481Z,37.77
2023-08-07T15:55:05.143Z,37.77
2023-08-07T15:57:38.207Z,38.08
2023-08-07T16:00:16.556Z,38.24
2023-08-07T16:02:49.928Z,38.38
2023-08-07T16:05:24.527Z,38.03
2023-08-07T16:07:57.687Z,37.82
2023-08-07T16:10:31.309Z,37.90
2023-08-07T16:13:04.540Z,38.24
2023-08-07T16:15:38.292Z,38.27
2023-08-07T16:18:12.004Z,38.30
2023-08-07T16:20:45.311Z,38.55
2023-08-07T16:23:19.020Z,38.74
2023-08-07T16:25:52.564Z,38.61
2023-08-07T16:28:26.085Z,38.75
2023-08-07T16:31:00.002Z,38.84
2023-08-07T16:33:32.933Z,38.97
2023-08-07T16:36:07.550Z,38.92
2023-08-07T16:38:40.718Z,39.37
2023-08-07T16:41:14.026Z,39.44
2023-08-07T16:43:48.419Z,39.49
2023-08-07T16:46:21.806Z,39.68
2023-08-07T16:48:55.198Z,39.98
2023-08-07T16:51:29.364Z,40.27
2023-08-07T16:54:03.088Z,40.37
2023-08-07T16:56:36.245Z,40.79
2023-08-07T16:59:09.197Z,40.83
2023-08-07T17:01:42.580Z,41.45
2023-08-07T17:04:15.990Z,41.40
2023-08-07T17:06:50.190Z,41.70
2023-08-07T17:09:24.028Z,41.74
2023-08-07T17:11:57.320Z,41.75
2023-08-07T17:14:30.790Z,41.83
2023-08-07T17:17:04.667Z,42.24
2023-08-07T17:19:37.742Z,42.08
2023-08-07T17:22:10.829Z,42.65
2023-08-07T17:24:44.993Z,42.87
2023-08-07T17:27:18.477Z,43.03
2023-08-07T17:29:52.103Z,43.29
2023-08-07T17:32:25.956Z,43.18
2023-08-07T17:35:01.678Z,43.14
2023-08-07T17:37:35.040Z,43.35
2023-08-07T17:40:10.380Z,43.67
2023-08-07T17:42:43.876Z,43.73
2023-08-07T17:45:18.215Z,43.88
2023-08-07T17:47:51.863Z,44.11
2023-08-07T17:50:25.392Z,44.13
2023-08-07T17:52:58.530Z,44.47
2023-08-07T17:55:32.580Z,44.51
2023-08-07T17:58:05.563Z,44.97
2023-08-07T18:00:39.777Z,45.08
2023-08-07T18:03:15.792Z,45.11
2023-08-07T18:05:50.018Z,45.35
2023-08-07T18:08:23.291Z,45.54
2023-08-07T18:10:56.578Z,45.84
2023-08-07T18:13:30.547Z,46.26
2023-08-07T18:16:04.331Z,46.69
2023-08-07T18:18:37.391Z,46.71
2023-08-07T18:21:10.394Z,47.11
2023-08-07T18:23:44.395Z,47.45
2023-08-07T18:26:17.896Z,47.83
2023-08-07T18:28:51.023Z,48.02
2023-08-07T18:31:26.271Z,48.15
2023-08-07T18:34:00.189Z,48.74
2023-08-07T18:36:34.820Z,49.19
2023-08-07T18:39:08.326Z,49.63
2023-08-07T18:41:42.067Z,50.23
2023-08-07T18:44:15.237Z,50.33
2023-08-07T18:46:48.816Z,50.53
2023-08-07T18:49:22.284Z,50.85
2023-08-07T18:51:55.799Z,50.93
2023-08-07T18:54:28.983Z,50.97
2023-08-07T18:57:05.822Z,51.15
2023-08-07T18:59:40.077Z,51.48
2023-08-07T19:02:13.478Z,51.69
2023-08-07T19:04:46.792Z,51.65
2023-08-07T19:07:20.873Z,51.96
2023-08-07T19:09:54.076Z,51.94
2023-08-07T19:12:27.256Z,51.99
2023-08-07T19:15:00.457Z,52.15
2023-08-07T19:17:35.099Z,52.35
2023-08-07T19:20:10.967Z,52.86
2023-08-07T19:22:44.523Z,52.87
2023-08-07T19:25:18.067Z,53.24
2023-08-07T19:27:51.736Z,53.62
2023-08-07T19:30:26.223Z,54.05
2023-08-07T19:32:59.723Z,53.84
2023-08-07T19:35:35.785Z,54.14
2023-08-07T19:38:09.299Z,54.57
2023-08-07T19:40:45.773Z,54.73
2023-08-07T19:43:19.670Z,54.71
2023-08-07T19:45:52.926Z,54.93
2023-08-07T19:48:27.352Z,55.35
2023-08-07T19:51:01.021Z,55.59
2023-08-07T19:53:35.044Z,55.93
2023-08-07T19:56:09.664Z,56.34
2023-08-07T19:58:42.830Z,56.64
2023-08-07T20:01:16.230Z,56.87
2023-08-07T20:03:49.474Z,57.74
2023-08-07T20:06:23.155Z,58.55
2023-08-07T20:08:57.313Z,58.84
2023-08-07T20:11:37.285Z,60.05
2023-08-07T20:14:10.660Z,61.33
2023-08-07T20:16:43.622Z,61.19
2023-08-07T20:19:16.737Z,60.82
2023-08-07T20:21:51.118Z,61.02
2023-08-07T20:24:25.061Z,61.92
2023-08-07T20:26:58.350Z,62.56
2023-08-07T20:29:31.854Z,62.77
2023-08-07T20:32:05.550Z,64.32
2023-08-07T20:34:39.059Z,64.91
2023-08-07T20:37:13.152Z,64.99
2023-08-07T20:39:46.463Z,64.95
2023-08-07T20:42:20.673Z,65.66
2023-08-07T20:44:54.481Z,66.34
2023-08-07T20:47:27.709Z,67.07
2023-08-07T20:50:01.686Z,66.85
2023-08-07T20:52:35.598Z,66.95
2023-08-07T20:55:10.464Z,67.27
2023-08-07T20:57:44.537Z,67.21
2023-08-07T21:00:20.067Z,67.61
2023-08-07T21:02:53.281Z,67.93
2023-08-07T21:05:27.186Z,68.05
2023-08-07T21:08:01.291Z,68.59
2023-08-07T21:10:34.584Z,69.25
2023-08-07T21:13:08.300Z,69.30
2023-08-07T21:15:43.632Z,70.18
2023-08-07T21:18:16.618Z,70.81
2023-08-07T21:20:50.611Z,72.95
2023-08-07T21:23:23.819Z,75.16
2023-08-07T21:25:57.808Z,76.83
2023-08-07T21:28:31.875Z,79.10
2023-08-07T21:31:06.072Z,82.28
2023-08-07T21:33:40.920Z,84.51
2023-08-07T21:36:14.683Z,86.72
2023-08-07T21:38:47.976Z,88.41
2023-08-07T21:41:21.300Z,89.60
2023-08-07T21:43:55.061Z,89.62
2023-08-07T21:46:28.360Z,89.69
2023-08-07T21:49:03.042Z,90.84
2023-08-07T21:51:37.019Z,91.50
2023-08-07T21:54:10.349Z,92.43
2023-08-07T21:56:44.830Z,94.04
2023-08-07T21:59:18.504Z,93.88
2023-08-07T22:01:51.683Z,93.81
2023-08-07T22:04:25.833Z,95.23
2023-08-07T22:06:59.011Z,96.11
2023-08-07T22:09:32.405Z,97.50
2023-08-07T22:12:06.515Z,99.01
2023-08-07T22:14:39.903Z,100.00
2023-08-07T22:17:13.296Z,100.00
2023-08-07T22:19:59.048Z,100.00
2023-08-07T22:22:38.802Z,100.00
2023-08-07T22:25:13.787Z,100.00
2023-08-07T22:27:46.937Z,100.00
2023-08-07T22:30:21.977Z,100.00
2023-08-07T22:32:55.606Z,100.00
2023-08-07T22:35:29.179Z,100.00
2023-08-07T22:38:03.339Z,100.00
2023-08-07T22:40:36.639Z,100.00
2023-08-07T22:43:11.676Z,100.00
2023-08-07T22:45:50.289Z,100.00
2023-08-07T22:48:23.946Z,100.00
2023-08-07T22:50:57.342Z,100.00
2023-08-07T22:53:30.621Z,100.00
2023-08-07T22:56:04.670Z,100.00
2023-08-07T22:58:37.538Z,100.00
2023-08-07T23:01:12.708Z,100.00
2023-08-07T23:03:46.777Z,100.00
2023-08-07T23:06:20.175Z,100.00
2023-08-07T23:08:53.490Z,100.00
2023-08-07T23:11:27.148Z,100.00
2023-08-07T23:14:00.461Z,100.00
2023-08-07T23:16:33.749Z,100.00
2023-08-07T23:19:06.840Z,100.00
2023-08-07T23:21:40.537Z,100.00
2023-08-07T23:24:14.151Z,100.00
2023-08-07T23:26:47.388Z,100.00
2023-08-07T23:29:20.726Z,100.00
2023-08-07T23:31:54.037Z,100.00
2023-08-07T23:34:27.553Z,100.00
2023-08-07T23:37:01.322Z,100.00
2023-08-07T23:39:34.713Z,100.00
2023-08-07T23:42:08.929Z,100.00
2023-08-07T23:44:42.729Z,100.00
2023-08-07T23:47:15.962Z,100.00
2023-08-07T23:49:49.333Z,100.00
2023-08-07T23:52:22.505Z,100.00
2023-08-07T23:54:55.841Z,100.00
2023-08-07T23:57:29.499Z,100.00
